createdAt,value
2023-02-19T00:01:32.263Z,11.37
2023-02-19T00:04:01.388Z,11.35
2023-02-19T00:06:31.287Z,11.33
2023-02-19T00:08:59.262Z,11.35
2023-02-19T00:11:29.923Z,11.34
2023-02-19T00:13:59.189Z,11.34
2023-02-19T00:16:28.429Z,11.35
2023-02-19T00:18:58.102Z,11.36
2023-02-19T00:21:26.850Z,11.37
2023-02-19T00:23:55.924Z,11.37
2023-02-19T00:26:23.928Z,11.35
2023-02-19T00:28:54.116Z,11.35
2023-02-19T00:31:23.692Z,11.36
2023-02-19T00:33:53.479Z,11.33
2023-02-19T00:36:21.635Z,11.31
2023-02-19T00:38:50.028Z,11.34
2023-02-19T00:41:21.586Z,11.35
2023-02-19T00:43:50.912Z,11.32
2023-02-19T00:46:21.187Z,11.39
2023-02-19T00:48:49.273Z,11.39
2023-02-19T00:51:17.082Z,11.39
2023-02-19T00:53:44.918Z,11.35
2023-02-19T00:56:13.349Z,11.40
2023-02-19T00:58:41.206Z,11.40
2023-02-19T01:01:09.792Z,11.40
2023-02-19T01:03:39.902Z,11.40
2023-02-19T01:06:09.492Z,11.40
2023-02-19T01:08:37.968Z,11.38
2023-02-19T01:11:07.194Z,11.37
2023-02-19T01:13:35.232Z,11.38
2023-02-19T01:16:06.651Z,11.39
2023-02-19T01:18:34.608Z,11.37
2023-02-19T01:21:07.113Z,11.37
2023-02-19T01:23:35.161Z,11.38
2023-02-19T01:26:05.617Z,11.37
2023-02-19T01:28:33.352Z,11.35
2023-02-19T01:31:02.700Z,11.38
2023-02-19T01:33:30.346Z,11.39
2023-02-19T01:35:58.117Z,11.38
2023-02-19T01:38:27.225Z,11.35
2023-02-19T01:40:58.585Z,11.33
2023-02-19T01:43:26.305Z,11.32
2023-02-19T01:45:54.048Z,11.34
2023-02-19T01:48:24.479Z,11.34
2023-02-19T01:50:55.180Z,11.32
2023-02-19T01:53:25.899Z,11.37
2023-02-19T01:55:57.292Z,11.37
2023-02-19T01:58:25.770Z,11.39
2023-02-19T02:00:53.450Z,11.40
2023-02-19T02:03:21.444Z,11.38
2023-02-19T02:05:55.383Z,11.35
2023-02-19T02:08:48.832Z,11.32
2023-02-19T02:11:17.920Z,11.29
2023-02-19T02:13:45.820Z,11.24
2023-02-19T02:16:22.122Z,11.23
2023-02-19T02:18:56.618Z,11.22
2023-02-19T02:21:58.366Z,11.20
2023-02-19T02:24:47.089Z,11.20
2023-02-19T02:27:29.776Z,11.19
2023-02-19T02:30:14.944Z,11.18
2023-02-19T02:32:53.444Z,11.18
2023-02-19T02:35:23.729Z,11.17
2023-02-19T02:37:52.266Z,11.13
2023-02-19T02:40:20.810Z,11.13
2023-02-19T02:42:48.770Z,11.11
2023-02-19T02:45:36.219Z,11.09
2023-02-19T02:48:10.279Z,11.08
2023-02-19T02:50:40.898Z,11.07
2023-02-19T02:53:30.188Z,11.08
2023-02-19T02:56:00.361Z,11.06
2023-02-19T02:58:29.334Z,11.04
2023-02-19T03:01:18.882Z,11.03
2023-02-19T03:03:49.305Z,11.01
2023-02-19T03:06:18.592Z,11.02
2023-02-19T03:08:50.210Z,11.02
2023-02-19T03:11:46.644Z,11.02
2023-02-19T03:14:34.258Z,11.00
2023-02-19T03:17:25.140Z,10.99
2023-02-19T03:19:55.925Z,11.00
2023-02-19T03:22:25.851Z,10.99
2023-02-19T03:25:14.312Z,10.98
2023-02-19T03:27:43.925Z,10.92
2023-02-19T03:30:14.077Z,10.97
2023-02-19T03:32:46.330Z,10.98
2023-02-19T03:35:17.667Z,10.94
2023-02-19T03:37:47.848Z,10.92
2023-02-19T03:40:16.177Z,10.92
2023-02-19T03:42:51.386Z,10.92
2023-02-19T03:45:28.935Z,10.92
2023-02-19T03:48:08.566Z,10.88
2023-02-19T03:50:43.297Z,10.89
2023-02-19T03:53:14.998Z,10.88
2023-02-19T03:55:45.790Z,10.86
2023-02-19T03:58:17.424Z,10.86
2023-02-19T04:00:46.851Z,10.83
2023-02-19T04:03:20.535Z,10.83
2023-02-19T04:05:51.100Z,10.80
2023-02-19T04:08:20.766Z,10.83
2023-02-19T04:10:48.836Z,10.81
2023-02-19T04:13:19.446Z,10.80
2023-02-19T04:15:48.797Z,10.75
2023-02-19T04:18:20.008Z,10.76
2023-02-19T04:20:48.833Z,10.78
2023-02-19T04:23:19.725Z,10.80
2023-02-19T04:25:50.578Z,10.81
2023-02-19T04:28:18.944Z,10.79
2023-02-19T04:30:46.991Z,10.82
2023-02-19T04:33:14.725Z,10.82
2023-02-19T04:35:43.734Z,10.83
2023-02-19T04:38:12.324Z,10.82
2023-02-19T04:40:40.029Z,10.80
2023-02-19T04:43:07.650Z,10.80
2023-02-19T04:45:35.409Z,10.80
2023-02-19T04:48:03.081Z,10.80
2023-02-19T04:50:30.802Z,10.79
2023-02-19T04:52:59.867Z,10.79
2023-02-19T04:55:27.561Z,10.78
2023-02-19T04:57:55.197Z,10.79
2023-02-19T05:00:23.239Z,10.78
2023-02-19T05:02:50.964Z,10.76
2023-02-19T05:05:18.697Z,10.75
2023-02-19T05:07:46.410Z,10.77
2023-02-19T05:10:16.766Z,10.76
2023-02-19T05:12:44.444Z,10.74
2023-02-19T05:15:12.113Z,10.73
2023-02-19T05:17:39.801Z,10.75
2023-02-19T05:20:08.456Z,10.74
2023-02-19T05:22:36.110Z,10.72
2023-02-19T05:25:04.403Z,10.75
2023-02-19T05:27:33.571Z,10.75
2023-02-19T05:30:01.301Z,10.76
2023-02-19T05:32:29.015Z,10.77
2023-02-19T05:34:56.653Z,10.76
2023-02-19T05:37:24.343Z,10.74
2023-02-19T05:39:52.000Z,10.76
2023-02-19T05:42:19.672Z,10.75
2023-02-19T05:44:48.763Z,10.72
2023-02-19T05:47:16.476Z,10.67
2023-02-19T05:49:44.148Z,10.66
2023-02-19T05:52:11.801Z,10.66
2023-02-19T05:54:39.559Z,10.64
2023-02-19T05:57:07.282Z,10.65
2023-02-19T05:59:34.963Z,10.65
2023-02-19T06:02:04.058Z,10.64
2023-02-19T06:04:31.798Z,10.65
2023-02-19T06:06:59.460Z,10.63
2023-02-19T06:09:27.125Z,10.61
2023-02-19T06:11:54.781Z,10.61
2023-02-19T06:14:22.488Z,10.62
2023-02-19T06:16:50.195Z,10.62
2023-02-19T06:19:19.418Z,10.61
2023-02-19T06:21:47.694Z,10.55
2023-02-19T06:24:15.365Z,10.56
2023-02-19T06:26:43.070Z,10.53
2023-02-19T06:29:10.720Z,10.55
2023-02-19T06:31:38.511Z,10.53
2023-02-19T06:34:06.612Z,10.51
2023-02-19T06:36:35.693Z,10.52
2023-02-19T06:39:04.826Z,10.52
2023-02-19T06:41:32.637Z,10.51
2023-02-19T06:44:00.369Z,10.51
2023-02-19T06:46:28.175Z,10.51
2023-02-19T06:48:55.915Z,10.48
2023-02-19T06:51:26.338Z,10.47
2023-02-19T06:53:55.618Z,10.46
2023-02-19T06:56:25.925Z,10.46
2023-02-19T06:58:54.159Z,10.45
2023-02-19T07:01:22.013Z,10.47
2023-02-19T07:03:50.065Z,10.50
2023-02-19T07:06:17.821Z,10.50
2023-02-19T07:08:45.743Z,10.50
2023-02-19T07:11:14.766Z,10.48
2023-02-19T07:13:42.376Z,10.45
2023-02-19T07:16:11.497Z,10.45
2023-02-19T07:18:40.537Z,10.43
2023-02-19T07:21:09.956Z,10.41
2023-02-19T07:23:38.167Z,10.43
2023-02-19T07:26:06.243Z,10.34
2023-02-19T07:28:35.371Z,10.32
2023-02-19T07:31:04.689Z,10.33
2023-02-19T07:33:32.422Z,10.33
2023-02-19T07:36:00.215Z,10.33
2023-02-19T07:38:28.381Z,10.30
2023-02-19T07:40:57.311Z,10.35
2023-02-19T07:43:25.491Z,10.34
2023-02-19T07:45:54.795Z,10.35
2023-02-19T07:48:22.777Z,10.36
2023-02-19T07:50:53.611Z,10.36
2023-02-19T07:53:21.566Z,10.35
2023-02-19T07:55:49.350Z,10.34
2023-02-19T07:58:17.146Z,10.34
2023-02-19T08:00:45.248Z,10.32
2023-02-19T08:03:13.323Z,10.31
2023-02-19T08:05:42.760Z,10.24
2023-02-19T08:08:11.600Z,10.21
2023-02-19T08:10:56.919Z,10.16
2023-02-19T08:13:25.469Z,10.13
2023-02-19T08:15:57.772Z,10.10
2023-02-19T08:18:33.815Z,10.09
2023-02-19T08:21:01.938Z,10.07
2023-02-19T08:23:30.061Z,9.96
2023-02-19T08:25:59.017Z,9.83
2023-02-19T08:28:26.790Z,9.76
2023-02-19T08:30:54.576Z,9.71
2023-02-19T08:33:22.903Z,9.67
2023-02-19T08:35:51.994Z,9.64
2023-02-19T08:38:19.635Z,9.61
2023-02-19T08:40:47.356Z,9.54
2023-02-19T08:43:16.991Z,9.50
2023-02-19T08:45:47.279Z,9.50
2023-02-19T08:48:15.228Z,9.47
2023-02-19T08:50:42.962Z,9.45
2023-02-19T08:53:12.045Z,9.38
2023-02-19T08:55:40.014Z,9.42
2023-02-19T08:58:07.721Z,9.41
2023-02-19T09:00:35.415Z,9.40
2023-02-19T09:03:03.122Z,9.37
2023-02-19T09:05:30.759Z,9.40
2023-02-19T09:07:58.618Z,9.43
2023-02-19T09:10:27.633Z,9.47
2023-02-19T09:12:55.331Z,9.52
2023-02-19T09:15:22.996Z,9.55
2023-02-19T09:17:52.624Z,9.57
2023-02-19T09:20:20.562Z,9.63
2023-02-19T09:22:48.313Z,9.65
2023-02-19T09:25:16.062Z,9.65
2023-02-19T09:27:45.199Z,9.67
2023-02-19T09:30:13.207Z,9.65
2023-02-19T09:32:40.978Z,9.60
2023-02-19T09:35:08.802Z,9.58
2023-02-19T09:37:36.822Z,9.53
2023-02-19T09:40:04.705Z,9.57
2023-02-19T09:42:33.821Z,9.52
2023-02-19T09:45:03.333Z,9.44
2023-02-19T09:47:32.665Z,9.38
2023-02-19T09:50:02.337Z,9.36
2023-02-19T09:52:34.128Z,9.32
2023-02-19T09:55:04.663Z,9.28
2023-02-19T09:57:34.510Z,9.30
2023-02-19T10:00:10.399Z,9.29
2023-02-19T10:02:38.532Z,9.28
2023-02-19T10:05:12.719Z,9.31
2023-02-19T10:07:42.971Z,9.35
2023-02-19T10:10:29.942Z,9.43
2023-02-19T10:13:04.082Z,9.41
2023-02-19T10:15:35.930Z,9.36
2023-02-19T10:18:05.155Z,9.38
2023-02-19T10:20:33.070Z,9.37
2023-02-19T10:23:04.500Z,9.41
2023-02-19T10:25:33.308Z,9.45
2023-02-19T10:28:01.513Z,9.52
2023-02-19T10:30:31.693Z,9.54
2023-02-19T10:33:03.778Z,9.55
2023-02-19T10:35:31.789Z,9.60
2023-02-19T10:37:59.563Z,9.56
2023-02-19T10:40:29.090Z,9.57
2023-02-19T10:42:59.801Z,9.61
2023-02-19T10:45:33.658Z,9.66
2023-02-19T10:48:02.828Z,9.72
2023-02-19T10:50:32.532Z,9.77
2023-02-19T10:53:01.897Z,9.78
2023-02-19T10:55:32.748Z,9.79
2023-02-19T10:58:21.603Z,9.75
2023-02-19T11:00:49.283Z,9.83
2023-02-19T11:03:23.977Z,9.83
2023-02-19T11:05:56.073Z,9.82
2023-02-19T11:08:24.788Z,9.90
2023-02-19T11:10:52.626Z,9.91
2023-02-19T11:13:27.346Z,9.97
2023-02-19T11:15:56.473Z,9.95
2023-02-19T11:18:26.895Z,9.96
2023-02-19T11:20:56.811Z,10.05
2023-02-19T11:23:28.412Z,10.06
2023-02-19T11:25:58.151Z,10.09
2023-02-19T11:28:33.000Z,10.09
2023-02-19T11:31:24.246Z,10.05
2023-02-19T11:33:56.324Z,10.02
2023-02-19T11:36:32.758Z,10.02
2023-02-19T11:39:16.752Z,10.08
2023-02-19T11:42:11.856Z,10.12
2023-02-19T11:44:49.192Z,10.17
2023-02-19T11:47:33.993Z,10.18
2023-02-19T11:50:10.101Z,10.25
2023-02-19T11:52:43.060Z,10.28
2023-02-19T11:55:18.292Z,10.34
2023-02-19T11:57:48.466Z,10.32
2023-02-19T12:00:22.734Z,10.29
2023-02-19T12:03:01.711Z,10.29
2023-02-19T12:05:58.709Z,10.40
2023-02-19T12:08:49.963Z,10.39
2023-02-19T12:11:29.644Z,10.34
2023-02-19T12:14:08.054Z,10.34
2023-02-19T12:16:38.052Z,10.34
2023-02-19T12:19:25.016Z,10.32
2023-02-19T12:22:06.108Z,10.30
2023-02-19T12:24:48.701Z,10.31
2023-02-19T12:27:27.178Z,10.27
2023-02-19T12:30:13.164Z,10.28
2023-02-19T12:32:54.170Z,10.27
2023-02-19T12:35:29.523Z,10.30
2023-02-19T12:38:06.708Z,10.30
2023-02-19T12:40:42.916Z,10.32
2023-02-19T12:43:17.044Z,10.35
2023-02-19T12:45:49.355Z,10.35
2023-02-19T12:48:24.882Z,10.40
2023-02-19T12:50:58.043Z,10.42
2023-02-19T12:53:44.983Z,10.49
2023-02-19T12:56:19.909Z,10.54
2023-02-19T12:58:49.991Z,10.58
2023-02-19T13:01:24.109Z,10.61
2023-02-19T13:03:55.116Z,10.61
2023-02-19T13:06:34.343Z,10.66
2023-02-19T13:09:06.990Z,10.68
2023-02-19T13:11:37.845Z,10.67
2023-02-19T13:14:10.508Z,10.61
2023-02-19T13:16:40.808Z,10.67
2023-02-19T13:19:08.433Z,10.63
2023-02-19T13:21:55.866Z,10.67
2023-02-19T13:24:28.094Z,10.69
2023-02-19T13:27:05.247Z,10.69
2023-02-19T13:29:44.955Z,10.66
2023-02-19T13:32:26.432Z,10.63
2023-02-19T13:35:20.372Z,10.58
2023-02-19T13:37:48.654Z,10.54
2023-02-19T13:40:34.218Z,10.49
2023-02-19T13:43:03.722Z,10.45
2023-02-19T13:45:35.378Z,10.43
2023-02-19T13:48:14.958Z,10.44
2023-02-19T13:50:43.027Z,10.44
2023-02-19T13:53:55.567Z,10.43
2023-02-19T13:56:41.123Z,10.35
2023-02-19T13:59:25.526Z,10.38
2023-02-19T14:02:29.220Z,10.38
2023-02-19T14:05:00.092Z,10.36
2023-02-19T14:08:03.925Z,10.39
2023-02-19T14:11:05.107Z,10.43
2023-02-19T14:14:09.832Z,10.51
2023-02-19T14:17:01.153Z,10.58
2023-02-19T14:19:50.938Z,10.58
2023-02-19T14:23:10.443Z,10.62
2023-02-19T14:25:49.695Z,10.61
2023-02-19T14:28:23.367Z,10.63
2023-02-19T14:30:54.085Z,10.64
2023-02-19T14:33:25.054Z,10.64
2023-02-19T14:35:56.177Z,10.62
2023-02-19T14:38:27.121Z,10.65
2023-02-19T14:40:55.510Z,10.63
2023-02-19T14:43:25.487Z,10.62
2023-02-19T14:45:57.404Z,10.63
2023-02-19T14:48:28.700Z,10.63
2023-02-19T14:50:59.082Z,10.65
2023-02-19T14:53:27.551Z,10.65
2023-02-19T14:55:56.392Z,10.62
2023-02-19T14:58:26.104Z,10.61
2023-02-19T15:00:55.121Z,10.55
2023-02-19T15:03:28.792Z,10.52
2023-02-19T15:05:58.396Z,10.52
2023-02-19T15:08:30.904Z,10.46
2023-02-19T15:10:58.575Z,10.50
2023-02-19T15:13:28.627Z,10.52
2023-02-19T15:15:58.222Z,10.49
2023-02-19T15:18:27.611Z,10.46
2023-02-19T15:21:01.223Z,10.39
2023-02-19T15:23:31.453Z,10.40
2023-02-19T15:26:00.389Z,10.41
2023-02-19T15:28:33.020Z,10.41
2023-02-19T15:31:23.087Z,10.41
2023-02-19T15:33:52.259Z,10.39
2023-02-19T15:36:26.192Z,10.39
2023-02-19T15:38:56.044Z,10.33
2023-02-19T15:41:25.116Z,10.33
2023-02-19T15:43:54.902Z,10.30
2023-02-19T15:46:25.772Z,10.28
2023-02-19T15:48:59.679Z,10.22
2023-02-19T15:51:31.034Z,10.22
2023-02-19T15:54:03.143Z,10.20
2023-02-19T15:56:33.440Z,10.17
2023-02-19T15:59:03.643Z,10.17
2023-02-19T16:01:35.343Z,10.18
2023-02-19T16:04:03.305Z,10.18
2023-02-19T16:06:31.352Z,10.15
2023-02-19T16:09:04.560Z,10.11
2023-02-19T16:11:36.889Z,10.10
2023-02-19T16:14:19.233Z,10.11
2023-02-19T16:16:50.288Z,10.07
2023-02-19T16:19:22.394Z,10.12
2023-02-19T16:21:50.254Z,10.13
2023-02-19T16:24:23.177Z,10.13
2023-02-19T16:26:50.977Z,10.12
2023-02-19T16:29:20.979Z,10.09
2023-02-19T16:31:51.651Z,10.10
2023-02-19T16:34:25.273Z,10.12
2023-02-19T16:36:52.948Z,10.10
2023-02-19T16:39:24.770Z,10.08
2023-02-19T16:42:22.567Z,10.05
2023-02-19T16:44:50.288Z,10.02
2023-02-19T16:47:25.750Z,10.03
2023-02-19T16:49:53.586Z,10.00
2023-02-19T16:52:21.278Z,9.97
2023-02-19T16:54:49.866Z,9.97
2023-02-19T16:57:17.693Z,9.92
2023-02-19T16:59:45.466Z,9.91
2023-02-19T17:02:18.122Z,9.87
2023-02-19T17:04:47.956Z,9.87
2023-02-19T17:07:17.491Z,9.85
2023-02-19T17:09:45.232Z,9.93
2023-02-19T17:12:14.621Z,9.93
2023-02-19T17:14:42.679Z,9.93
2023-02-19T17:17:10.424Z,9.94
2023-02-19T17:19:39.310Z,9.94
2023-02-19T17:22:09.024Z,9.91
2023-02-19T17:24:36.682Z,9.94
2023-02-19T17:27:04.401Z,9.94
2023-02-19T17:29:34.020Z,9.92
2023-02-19T17:32:02.043Z,9.92
2023-02-19T17:34:29.769Z,9.91
2023-02-19T17:36:57.664Z,9.89
2023-02-19T17:39:27.691Z,9.85
2023-02-19T17:41:55.489Z,9.84
2023-02-19T17:44:23.306Z,9.79
2023-02-19T17:46:51.058Z,9.79
2023-02-19T17:49:19.628Z,9.78
2023-02-19T17:51:47.295Z,9.76
2023-02-19T17:54:14.962Z,9.74
2023-02-19T17:56:45.973Z,9.70
2023-02-19T17:59:14.307Z,9.68
2023-02-19T18:01:41.994Z,9.65
2023-02-19T18:04:09.752Z,9.63
2023-02-19T18:06:37.498Z,9.63
2023-02-19T18:09:05.771Z,9.62
2023-02-19T18:11:33.417Z,9.62
2023-02-19T18:14:02.490Z,9.58
2023-02-19T18:16:30.152Z,9.53
2023-02-19T18:18:59.823Z,9.52
2023-02-19T18:21:27.491Z,9.45
2023-02-19T18:23:55.173Z,9.43
2023-02-19T18:26:22.906Z,9.36
2023-02-19T18:28:50.655Z,9.38
2023-02-19T18:31:19.800Z,9.37
2023-02-19T18:33:47.500Z,9.36
2023-02-19T18:36:15.284Z,9.35
2023-02-19T18:38:43.253Z,9.36
2023-02-19T18:41:13.000Z,9.35
2023-02-19T18:43:41.988Z,9.34
2023-02-19T18:46:10.140Z,9.35
2023-02-19T18:48:39.828Z,9.33
2023-02-19T18:51:10.714Z,9.29
2023-02-19T18:53:38.695Z,9.35
2023-02-19T18:56:09.014Z,9.37
2023-02-19T18:58:36.786Z,9.39
2023-02-19T19:01:04.600Z,9.42
2023-02-19T19:03:32.299Z,9.42
2023-02-19T19:06:01.351Z,9.41
2023-02-19T19:08:30.657Z,9.39
2023-02-19T19:10:58.611Z,9.38
2023-02-19T19:13:26.370Z,9.40
2023-02-19T19:15:54.154Z,9.41
2023-02-19T19:18:21.969Z,9.44
2023-02-19T19:20:49.693Z,9.43
2023-02-19T19:23:18.792Z,9.41
2023-02-19T19:25:46.438Z,9.36
2023-02-19T19:28:14.049Z,9.41
2023-02-19T19:30:42.556Z,9.42
2023-02-19T19:33:11.997Z,9.43
2023-02-19T19:35:39.704Z,9.37
2023-02-19T19:38:07.528Z,9.33
2023-02-19T19:40:36.715Z,9.29
2023-02-19T19:43:04.403Z,9.29
2023-02-19T19:45:32.146Z,9.28
2023-02-19T19:47:59.931Z,9.22
2023-02-19T19:50:27.763Z,9.22
2023-02-19T19:52:55.406Z,9.19
2023-02-19T19:55:23.200Z,9.24
2023-02-19T19:57:53.908Z,9.18
2023-02-19T20:00:23.483Z,9.14
2023-02-19T20:02:51.187Z,9.10
2023-02-19T20:05:19.105Z,9.06
2023-02-19T20:07:46.805Z,9.06
2023-02-19T20:10:16.012Z,9.06
2023-02-19T20:12:44.006Z,9.07
2023-02-19T20:15:13.744Z,9.09
2023-02-19T20:17:41.396Z,9.12
2023-02-19T20:20:10.455Z,9.06
2023-02-19T20:22:39.227Z,9.08
2023-02-19T20:25:07.309Z,9.06
2023-02-19T20:27:35.041Z,9.07
2023-02-19T20:30:02.763Z,9.07
2023-02-19T20:32:31.944Z,9.08
2023-02-19T20:34:59.661Z,9.10
2023-02-19T20:37:27.342Z,9.11
2023-02-19T20:39:54.988Z,9.10
2023-02-19T20:42:22.647Z,9.07
2023-02-19T20:44:50.318Z,9.06
2023-02-19T20:47:17.995Z,9.06
2023-02-19T20:49:47.233Z,9.04
2023-02-19T20:52:15.910Z,9.02
2023-02-19T20:54:44.454Z,9.00
2023-02-19T20:57:12.437Z,8.97
2023-02-19T20:59:40.807Z,8.94
2023-02-19T21:02:21.830Z,8.88
2023-02-19T21:04:51.234Z,8.85
2023-02-19T21:07:18.870Z,8.80
2023-02-19T21:09:46.559Z,8.78
2023-02-19T21:12:14.459Z,8.76
2023-02-19T21:14:42.169Z,8.68
2023-02-19T21:17:09.881Z,8.62
2023-02-19T21:19:37.599Z,8.61
2023-02-19T21:22:06.687Z,8.61
2023-02-19T21:24:34.304Z,8.62
2023-02-19T21:27:02.076Z,8.66
2023-02-19T21:29:29.749Z,8.66
2023-02-19T21:31:58.440Z,8.62
2023-02-19T21:34:27.399Z,8.57
2023-02-19T21:36:55.691Z,8.54
2023-02-19T21:39:27.308Z,8.49
2023-02-19T21:41:54.985Z,8.44
2023-02-19T21:44:22.826Z,8.44
2023-02-19T21:46:50.542Z,8.45
2023-02-19T21:49:18.665Z,8.44
2023-02-19T21:51:48.508Z,8.38
2023-02-19T21:54:17.207Z,8.35
2023-02-19T21:56:46.401Z,8.34
2023-02-19T21:59:14.498Z,8.35
2023-02-19T22:01:43.304Z,8.34
2023-02-19T22:04:12.392Z,8.33
2023-02-19T22:06:40.478Z,8.28
2023-02-19T22:09:08.957Z,8.30
2023-02-19T22:11:36.632Z,8.25
2023-02-19T22:14:05.747Z,8.23
2023-02-19T22:16:33.573Z,8.23
2023-02-19T22:19:01.467Z,8.24
2023-02-19T22:21:32.297Z,8.22
2023-02-19T22:24:00.710Z,8.19
2023-02-19T22:26:30.106Z,8.18
2023-02-19T22:28:59.463Z,8.19
2023-02-19T22:31:29.320Z,8.19
2023-02-19T22:33:58.262Z,8.14
2023-02-19T22:36:27.903Z,8.11
2023-02-19T22:38:55.683Z,8.09
2023-02-19T22:41:24.098Z,8.09
2023-02-19T22:43:52.043Z,8.10
2023-02-19T22:46:21.808Z,8.09
2023-02-19T22:48:51.015Z,8.06
2023-02-19T22:51:20.412Z,7.99
2023-02-19T22:53:49.303Z,7.95
2023-02-19T22:56:18.715Z,7.94
2023-02-19T22:58:46.581Z,7.97
2023-02-19T23:01:15.513Z,7.94
2023-02-19T23:03:47.462Z,7.93
2023-02-19T23:06:17.370Z,7.91
2023-02-19T23:08:45.380Z,7.90
2023-02-19T23:11:13.928Z,7.85
2023-02-19T23:13:41.927Z,7.84
2023-02-19T23:16:09.829Z,7.86
2023-02-19T23:18:37.623Z,7.87
2023-02-19T23:21:05.491Z,7.87
2023-02-19T23:23:34.614Z,7.86
2023-02-19T23:26:02.307Z,7.85
2023-02-19T23:28:30.368Z,7.83
2023-02-19T23:30:58.191Z,7.81
2023-02-19T23:33:26.070Z,7.81
2023-02-19T23:35:53.891Z,7.83
2023-02-19T23:38:22.154Z,7.80
2023-02-19T23:40:51.207Z,7.78
2023-02-19T23:43:18.848Z,7.76
2023-02-19T23:45:46.585Z,7.79
2023-02-19T23:48:14.323Z,7.81
2023-02-19T23:50:41.959Z,7.75
2023-02-19T23:53:09.952Z,7.76
2023-02-19T23:55:37.732Z,7.74
2023-02-19T23:58:06.826Z,7.73
